Time;durP1;ratioP1;P1;durP2;ratioP2;P2;SDS_P1;SDS_P2;PMS_P1;PMS_P2;Temp;Humidity;BMP_temperature;BMP_pressure;BME280_temperature;BME280_humidity;BME280_pressure;Samples;Min_cycle;Max_cycle;Signal;HPM_P1;HPM_P2
2021/09/24 16:06:52;;;;;;;24.37;8.78;;;;;;;10.53;100.00;99961.25;1810640;79;22770;-92
2021/09/24 16:09:19;;;;;;;12.13;7.12;;;;;;;10.51;100.00;99965.76;1755912;80;21007;-87
2021/09/24 16:11:49;;;;;;;8.15;6.65;;;;;;;10.55;100.00;99964.53;1747880;80;21051;-91
2021/09/24 16:14:19;;;;;;;7.45;6.40;;;;;;;10.58;100.00;99961.67;1748258;80;20977;-91
2021/09/24 16:17:23;;;;;;;11.73;6.42;;;;;;;10.63;100.00;99970.39;1718256;82;21040;-91
2021/09/24 16:22:58;;;;;;;7.05;6.35;;;;;;;10.67;100.00;99972.61;1633060;87;21204;-90
2021/09/24 16:25:25;;;;;;;7.20;6.50;;;;;;;10.72;100.00;99967.81;1683832;84;21330;-88
2021/09/24 16:27:54;;;;;;;9.28;6.00;;;;;;;10.76;100.00;99970.16;1657816;84;21061;-91
2021/09/24 16:30:21;;;;;;;6.53;5.42;;;;;;;10.77;100.00;99970.02;1659876;84;21073;-86
2021/09/24 16:32:48;;;;;;;6.17;4.85;;;;;;;10.81;100.00;99975.79;1651318;83;21085;-86
2021/09/24 16:35:16;;;;;;;5.62;5.08;;;;;;;10.84;100.00;99979.45;1665728;84;21143;-88
2021/09/24 16:37:43;;;;;;;6.70;5.62;;;;;;;10.87;100.00;99981.77;1665187;86;21473;-89
2021/09/24 16:40:12;;;;;;;6.55;5.75;;;;;;;10.92;100.00;99977.00;1659008;84;21096;-87
2021/09/24 16:42:40;;;;;;;10.65;7.83;;;;;;;10.98;100.00;99981.67;1686208;83;21124;-90
2021/09/24 16:45:10;;;;;;;8.33;7.00;;;;;;;11.00;100.00;99975.86;1663568;84;21571;-87
2021/09/24 16:47:38;;;;;;;13.90;12.63;;;;;;;11.05;100.00;99980.17;1662455;83;21104;-88
2021/09/24 16:50:08;;;;;;;12.82;11.53;;;;;;;11.09;100.00;99976.82;1658618;84;21139;-89
2021/09/24 16:52:39;;;;;;;10.72;7.97;;;;;;;11.11;100.00;99974.91;1657249;84;21085;-89
2021/09/24 16:55:09;;;;;;;8.85;7.87;;;;;;;11.18;100.00;99980.39;1648852;86;21061;-91
2021/09/24 16:57:40;;;;;;;11.45;9.10;;;;;;;11.20;100.00;99979.32;1627132;86;21426;-90
2021/09/24 17:00:15;;;;;;;17.65;14.68;;;;;;;11.19;100.00;99977.67;1638197;87;21044;-88
2021/09/24 17:02:47;;;;;;;16.12;11.45;;;;;;;11.19;100.00;99977.67;1639953;87;21077;-88
2021/09/24 17:05:16;;;;;;;9.63;8.70;;;;;;;11.21;100.00;99985.34;1595098;87;21085;-87
2021/09/24 17:07:44;;;;;;;10.82;7.92;;;;;;;11.23;100.00;99984.73;1615147;87;20986;-89
2021/09/24 17:10:11;;;;;;;8.90;7.47;;;;;;;11.23;100.00;99982.13;1613050;87;21002;-88
2021/09/24 17:12:54;;;;;;;;;;;;;;;;;;;;;
2021/09/24 17:15:11;;;;;;;;;;;;;;;11.30;100.00;99981.94;1614615;87;21042;-90
2021/09/24 17:20:52;;;;;;;7.78;5.95;;;;;;;11.27;100.00;99982.19;1809111;78;23084;-87
2021/09/24 17:23:19;;;;;;;6.85;6.00;;;;;;;11.23;100.00;99985.20;1786553;77;20973;-93
2021/09/24 17:25:57;;;;;;;7.70;6.62;;;;;;;11.23;100.00;99976.92;1825862;77;22325;-88
2021/09/24 17:28:24;;;;;;;7.15;6.45;;;;;;;11.24;100.00;99984.24;1813126;78;20975;-87
2021/09/24 17:30:51;;;;;;;8.58;6.53;;;;;;;11.27;100.00;99985.29;1775187;78;21014;-91
2021/09/24 17:33:18;;;;;;;7.50;6.78;;;;;;;11.28;100.00;99980.42;1813612;77;20993;-88
2021/09/24 17:35:45;;;;;;;6.75;6.15;;;;;;;11.30;100.00;99981.09;1813363;77;21046;-90
2021/09/24 17:38:12;;;;;;;7.17;6.33;;;;;;;11.29;100.00;99987.29;1834565;77;21126;-90
2021/09/24 17:40:40;;;;;;;11.20;7.25;;;;;;;11.28;100.00;99981.73;1751819;80;20954;-89
2021/09/24 17:43:07;;;;;;;14.73;8.88;;;;;;;11.27;100.00;99983.98;1788930;78;21006;-88
2021/09/24 17:45:34;;;;;;;10.03;8.20;;;;;;;11.29;100.00;99978.98;1800506;79;21035;-87
2021/09/24 17:48:02;;;;;;;10.35;9.25;;;;;;;11.33;100.00;99972.55;1738201;80;20960;-89
2021/09/24 17:50:31;;;;;;;17.80;12.05;;;;;;;11.41;100.00;99975.77;1765092;78;20998;-87
2021/09/24 17:52:58;;;;;;;24.37;14.20;;;;;;;11.43;100.00;99980.83;1817836;77;21041;-88
2021/09/24 17:55:27;;;;;;;20.15;14.98;;;;;;;11.42;100.00;99985.23;1793865;78;21013;-89
2021/09/24 17:57:55;;;;;;;25.75;14.60;;;;;;;11.42;100.00;99983.09;1793219;77;21068;-86
2021/09/24 18:00:24;;;;;;;24.87;15.50;;;;;;;11.46;100.00;99980.08;1790291;79;21058;-83
2021/09/24 18:02:51;;;;;;;33.02;17.40;;;;;;;11.50;100.00;99982.77;1790241;79;21526;-85
2021/09/24 18:05:19;;;;;;;23.10;15.85;;;;;;;11.50;100.00;99985.84;1802498;77;21037;-86
2021/09/24 18:07:46;;;;;;;44.85;22.98;;;;;;;11.48;100.00;99981.27;1801921;77;21007;-86
2021/09/24 18:10:14;;;;;;;51.37;27.87;;;;;;;11.43;100.00;99986.88;1822491;77;20998;-87
2021/09/24 18:12:42;;;;;;;76.45;39.45;;;;;;;11.43;100.00;99982.14;1791790;79;21062;-87
2021/09/24 18:15:10;;;;;;;54.38;34.35;;;;;;;11.44;100.00;99974.66;1766876;78;21071;-86
2021/09/24 18:17:38;;;;;;;40.03;27.13;;;;;;;11.45;100.00;99977.62;1812610;77;21105;-89
2021/09/24 18:20:07;;;;;;;31.73;25.40;;;;;;;11.43;100.00;99975.16;1821619;77;21488;-87
2021/09/24 18:22:34;;;;;;;29.55;22.62;;;;;;;11.42;100.00;99976.11;1821806;77;21480;-86
2021/09/24 18:25:01;;;;;;;22.17;19.35;;;;;;;11.42;100.00;99980.02;1790667;78;21064;-88
2021/09/24 18:27:28;;;;;;;19.30;17.25;;;;;;;11.41;100.00;99987.98;1765756;80;21195;-88
2021/09/24 18:29:55;;;;;;;25.80;18.80;;;;;;;11.39;100.00;99982.08;1816924;77;20915;-88
2021/09/24 18:32:22;;;;;;;23.05;20.52;;;;;;;11.34;100.00;99981.18;1764908;78;21141;-84
2021/09/24 18:34:49;;;;;;;24.65;19.30;;;;;;;11.31;100.00;99984.05;1787692;79;21512;-84
2021/09/24 18:37:18;;;;;;;22.70;19.00;;;;;;;11.30;100.00;99983.23;1818916;77;20955;-87
2021/09/24 18:39:45;;;;;;;24.90;20.82;;;;;;;11.30;100.00;99986.30;1773032;79;21513;-86
2021/09/24 18:42:12;;;;;;;22.22;19.82;;;;;;;11.32;100.00;99981.33;1783458;79;21014;-86
2021/09/24 18:44:40;;;;;;;21.48;19.07;;;;;;;11.32;100.00;99973.97;1739875;79;21576;-86
2021/09/24 18:47:07;;;;;;;23.00;19.42;;;;;;;11.31;100.00;99980.14;1784426;78;21081;-87
2021/09/24 18:49:34;;;;;;;22.98;18.82;;;;;;;11.32;100.00;99980.48;1771035;80;21030;-87
2021/09/24 18:52:02;;;;;;;21.75;18.25;;;;;;;11.30;100.00;99975.41;1762418;80;21831;-86
2021/09/24 18:54:29;;;;;;;23.90;18.52;;;;;;;11.28;100.00;99983.03;1786047;79;21009;-87
2021/09/24 18:56:56;;;;;;;21.40;17.82;;;;;;;11.27;100.00;99979.58;1786434;79;21007;-85
2021/09/24 18:59:23;;;;;;;20.52;18.05;;;;;;;11.27;100.00;99983.49;1764015;80;21045;-85
2021/09/24 19:01:50;;;;;;;23.10;18.75;;;;;;;11.28;100.00;99982.54;1748891;79;20998;-88
2021/09/24 19:04:17;;;;;;;24.37;18.32;;;;;;;11.28;100.00;99983.03;1762113;79;21030;-86
2021/09/24 19:06:44;;;;;;;22.52;19.32;;;;;;;11.31;100.00;99982.74;1744710;81;20991;-86
2021/09/24 19:09:11;;;;;;;22.93;19.67;;;;;;;11.34;100.00;99981.18;1769968;80;21525;-85
2021/09/24 19:11:38;;;;;;;30.48;19.50;;;;;;;11.34;100.00;99981.98;1753610;80;21078;-86
2021/09/24 19:14:05;;;;;;;23.62;21.15;;;;;;;11.34;100.00;99976.78;1775465;79;21006;-85
2021/09/24 19:16:34;;;;;;;27.02;19.42;;;;;;;11.35;100.00;99984.95;1797903;78;21120;-85
2021/09/24 19:19:01;;;;;;;31.70;20.90;;;;;;;11.32;100.00;99980.02;1776553;79;21390;-82
2021/09/24 19:21:28;;;;;;;28.90;20.72;;;;;;;11.32;100.00;99979.18;1778151;79;20946;-85
2021/09/24 19:23:55;;;;;;;23.18;18.98;;;;;;;11.35;100.00;99982.34;1779784;79;21030;-89
2021/09/24 19:26:22;;;;;;;22.55;19.95;;;;;;;11.41;100.00;99979.67;1801486;78;21082;-86
2021/09/24 19:28:52;;;;;;;25.25;20.25;;;;;;;11.41;100.00;99981.47;1781827;79;21082;-85
2021/09/24 19:31:21;;;;;;;21.23;18.67;;;;;;;11.39;100.00;99985.98;1758615;79;21160;-84
2021/09/24 19:33:50;;;;;;;24.47;19.35;;;;;;;11.38;100.00;99986.95;1800867;78;21085;-87
